Terminal Aerodrome Forecast
Issued by NWS Kansas City/Pleasant Hill, MO

Home | Current Version | Previous Version | Text Only | Print | Product List | Glossary On
Versions: 1 2 3 4 5 6 7 8 9 10 11 12 13 14 15 16 17
000
FTUS43 KEAX 290500
TAFMCI
TAF
KMCI 290520Z 2906/3006 15009KT P6SM SCT035 BKN150
     FM290900 18009KT P6SM -SHRA VCTS BKN035CB
     FM291300 19011KT P6SM BKN045
     FM291900 23011KT P6SM VCTS BKN045CB
     FM300100 30011KT P6SM VCTS BKN035CB=

USA.gov is the U.S. government's official web portal to all federal, state and local government web resources and services.